createdAt,value
2022-12-07T00:00:36.777Z,23.94
2022-12-07T00:03:26.773Z,24.00
2022-12-07T00:06:16.914Z,24.00
2022-12-07T00:09:06.125Z,23.99
2022-12-07T00:11:54.683Z,24.01
2022-12-07T00:14:43.291Z,23.98
2022-12-07T00:17:31.886Z,23.94
2022-12-07T00:20:21.847Z,23.95
2022-12-07T00:23:10.505Z,23.95
2022-12-07T00:26:05.087Z,23.94
2022-12-07T00:28:55.182Z,23.91
2022-12-07T00:31:43.868Z,23.93
2022-12-07T00:34:32.622Z,23.90
2022-12-07T00:37:22.641Z,23.90
2022-12-07T00:40:12.048Z,23.87
2022-12-07T00:43:00.724Z,23.86
2022-12-07T00:45:49.354Z,23.86
2022-12-07T00:48:38.142Z,23.84
2022-12-07T00:51:27.518Z,23.84
2022-12-07T00:54:17.570Z,23.88
2022-12-07T00:57:06.283Z,23.88
2022-12-07T00:59:56.340Z,23.89
2022-12-07T01:02:44.928Z,23.90
2022-12-07T01:05:33.689Z,23.89
2022-12-07T01:08:22.993Z,23.89
2022-12-07T01:11:16.068Z,23.85
2022-12-07T01:14:04.747Z,23.82
2022-12-07T01:16:53.412Z,23.83
2022-12-07T01:19:42.032Z,23.85
2022-12-07T01:22:30.647Z,23.80
2022-12-07T01:25:19.461Z,23.77
2022-12-07T01:28:09.500Z,23.79
2022-12-07T01:31:00.062Z,23.74
2022-12-07T01:33:50.906Z,23.78
2022-12-07T01:36:39.698Z,23.77
2022-12-07T01:39:28.392Z,23.78
2022-12-07T01:42:17.095Z,23.80
2022-12-07T01:45:47.147Z,23.80
2022-12-07T01:48:39.852Z,23.79
2022-12-07T01:51:29.533Z,23.76
2022-12-07T01:54:19.036Z,23.77
2022-12-07T01:57:09.467Z,23.78
2022-12-07T01:59:58.598Z,23.79
2022-12-07T02:02:50.513Z,23.77
2022-12-07T02:05:43.122Z,23.77
2022-12-07T02:08:31.711Z,23.74
2022-12-07T02:11:20.937Z,23.76
2022-12-07T02:14:09.627Z,23.77
2022-12-07T02:17:08.044Z,23.77
2022-12-07T02:20:23.299Z,23.79
2022-12-07T02:23:50.270Z,23.76
2022-12-07T02:27:06.277Z,23.73
2022-12-07T02:30:01.843Z,23.75
2022-12-07T02:32:54.205Z,23.75
2022-12-07T02:35:46.058Z,23.76
2022-12-07T02:38:39.873Z,23.76
2022-12-07T02:41:31.048Z,23.76
2022-12-07T02:44:22.162Z,23.72
2022-12-07T02:47:14.607Z,23.72
2022-12-07T02:50:05.815Z,23.71
2022-12-07T02:52:54.501Z,23.70
2022-12-07T02:55:44.305Z,23.69
2022-12-07T02:58:43.143Z,23.66
2022-12-07T03:01:40.082Z,23.69
2022-12-07T03:04:38.529Z,23.70
2022-12-07T03:07:34.704Z,23.73
2022-12-07T03:10:29.440Z,23.69
2022-12-07T03:13:25.004Z,23.70
2022-12-07T03:16:17.389Z,23.72
2022-12-07T03:19:09.301Z,23.70
2022-12-07T03:22:01.253Z,23.68
2022-12-07T03:24:53.290Z,23.69
2022-12-07T03:27:44.813Z,23.69
2022-12-07T03:30:37.262Z,23.71
2022-12-07T03:33:28.990Z,23.70
2022-12-07T03:36:21.868Z,23.65
2022-12-07T03:39:18.072Z,23.66
2022-12-07T03:42:08.210Z,23.66
2022-12-07T03:44:56.983Z,23.70
2022-12-07T03:47:50.189Z,23.68
2022-12-07T03:50:44.493Z,23.65
2022-12-07T03:53:37.368Z,23.66
2022-12-07T03:56:28.563Z,23.65
2022-12-07T03:59:18.318Z,23.61
2022-12-07T04:02:08.999Z,23.59
2022-12-07T04:04:57.785Z,23.59
2022-12-07T04:07:46.605Z,23.61
2022-12-07T04:10:35.570Z,23.61
2022-12-07T04:13:25.640Z,23.65
2022-12-07T04:16:14.236Z,23.66
2022-12-07T04:19:02.847Z,23.65
2022-12-07T04:21:51.392Z,23.66
2022-12-07T04:24:40.034Z,23.65
2022-12-07T04:27:28.608Z,23.68
2022-12-07T04:30:18.589Z,23.68
2022-12-07T04:33:07.189Z,23.65
2022-12-07T04:35:55.833Z,23.63
2022-12-07T04:38:44.491Z,23.65
2022-12-07T04:41:33.540Z,23.64
2022-12-07T04:44:23.112Z,23.67
2022-12-07T04:47:13.081Z,23.69
2022-12-07T04:50:02.217Z,23.69
2022-12-07T04:52:51.090Z,23.67
2022-12-07T04:55:39.712Z,23.70
2022-12-07T04:58:28.255Z,23.70
2022-12-07T05:01:18.548Z,23.64
2022-12-07T05:04:08.866Z,23.64
2022-12-07T05:06:57.442Z,23.69
2022-12-07T05:09:46.067Z,23.70
2022-12-07T05:12:34.703Z,23.69
2022-12-07T05:15:23.360Z,23.68
2022-12-07T05:18:13.406Z,23.69
2022-12-07T05:21:03.305Z,23.66
2022-12-07T05:23:52.020Z,23.75
2022-12-07T05:26:40.577Z,23.72
2022-12-07T05:29:29.233Z,23.50
2022-12-07T05:32:20.762Z,23.39
2022-12-07T05:35:10.469Z,23.35
2022-12-07T05:38:00.436Z,23.24
2022-12-07T05:40:49.091Z,23.11
2022-12-07T05:43:37.681Z,23.15
2022-12-07T05:46:26.304Z,23.08
2022-12-07T05:49:14.944Z,23.19
2022-12-07T05:52:04.098Z,23.17
2022-12-07T05:54:54.070Z,23.14
2022-12-07T05:58:03.063Z,23.13
2022-12-07T06:00:51.540Z,23.12
2022-12-07T06:03:40.373Z,23.10
2022-12-07T06:06:29.080Z,23.12
2022-12-07T06:09:19.241Z,23.10
2022-12-07T06:12:29.244Z,23.12
2022-12-07T06:15:18.080Z,23.16
2022-12-07T06:18:06.969Z,23.12
2022-12-07T06:20:55.581Z,23.12
2022-12-07T06:23:48.715Z,23.10
2022-12-07T06:26:37.448Z,23.10
2022-12-07T06:29:27.627Z,23.12
2022-12-07T06:32:16.397Z,23.12
2022-12-07T06:35:05.710Z,23.14
2022-12-07T06:37:54.304Z,23.10
2022-12-07T06:40:42.908Z,23.14
2022-12-07T06:43:31.569Z,23.19
2022-12-07T06:46:21.912Z,23.21
2022-12-07T06:49:10.716Z,23.24
2022-12-07T06:51:59.288Z,23.26
2022-12-07T06:54:47.927Z,23.24
2022-12-07T06:57:36.518Z,23.26
2022-12-07T07:00:25.285Z,23.25
2022-12-07T07:03:15.254Z,23.36
2022-12-07T07:06:03.857Z,23.34
2022-12-07T07:08:52.666Z,23.37
2022-12-07T07:11:41.289Z,23.34
2022-12-07T07:14:29.834Z,23.35
2022-12-07T07:17:18.442Z,23.33
2022-12-07T07:20:09.663Z,23.36
2022-12-07T07:22:58.530Z,23.43
2022-12-07T07:25:47.183Z,23.43
2022-12-07T07:28:35.814Z,23.40
2022-12-07T07:31:24.547Z,23.38
2022-12-07T07:34:13.250Z,23.36
2022-12-07T07:37:03.632Z,23.43
2022-12-07T07:39:52.454Z,23.94
2022-12-07T07:42:41.197Z,24.30
2022-12-07T07:45:29.991Z,24.49
2022-12-07T07:48:18.661Z,24.64
2022-12-07T07:51:08.923Z,24.64
2022-12-07T07:53:58.976Z,24.75
2022-12-07T07:56:47.658Z,24.76
2022-12-07T07:59:36.668Z,24.84
2022-12-07T08:02:25.565Z,24.91
2022-12-07T08:05:14.433Z,24.85
2022-12-07T08:08:03.398Z,24.41
2022-12-07T08:10:53.461Z,24.10
2022-12-07T08:13:42.087Z,23.87
2022-12-07T08:16:30.770Z,23.78
2022-12-07T08:19:19.471Z,23.73
2022-12-07T08:22:08.056Z,23.70
2022-12-07T08:24:56.654Z,23.69
2022-12-07T08:27:46.779Z,23.64
2022-12-07T08:30:35.840Z,23.67
2022-12-07T08:33:25.424Z,23.62
2022-12-07T08:36:14.702Z,23.63
2022-12-07T08:42:12.149Z,23.59
2022-12-07T08:45:02.143Z,23.61
2022-12-07T08:47:54.175Z,23.60
2022-12-07T08:50:49.087Z,23.59
2022-12-07T08:53:39.790Z,23.57
2022-12-07T08:56:28.795Z,23.56
2022-12-07T08:59:18.705Z,23.53
2022-12-07T09:02:08.932Z,23.53
2022-12-07T09:04:57.675Z,23.54
2022-12-07T09:07:48.397Z,23.57
2022-12-07T09:10:37.033Z,23.55
2022-12-07T09:13:25.684Z,23.57
2022-12-07T09:16:17.745Z,23.54
2022-12-07T09:19:07.909Z,23.54
2022-12-07T09:21:56.603Z,23.59
2022-12-07T09:24:46.519Z,23.64
2022-12-07T09:27:35.296Z,23.62
2022-12-07T09:30:23.968Z,23.63
2022-12-07T09:33:12.610Z,23.62
2022-12-07T09:36:03.559Z,23.61
2022-12-07T09:38:52.145Z,23.62
2022-12-07T09:41:41.662Z,23.61
2022-12-07T09:44:30.418Z,23.61
2022-12-07T09:47:19.029Z,23.61
2022-12-07T09:50:14.490Z,23.61
2022-12-07T09:53:11.401Z,23.57
2022-12-07T09:56:00.047Z,23.58
2022-12-07T09:58:49.539Z,23.65
2022-12-07T10:01:40.878Z,23.65
2022-12-07T10:04:30.569Z,23.66
2022-12-07T10:07:19.226Z,23.67
2022-12-07T10:10:16.649Z,23.75
2022-12-07T10:13:07.152Z,23.76
2022-12-07T10:16:00.913Z,23.72
2022-12-07T10:18:54.212Z,23.77
2022-12-07T10:21:42.734Z,23.82
2022-12-07T10:24:31.586Z,23.81
2022-12-07T10:27:24.177Z,23.82
2022-12-07T10:30:23.582Z,23.80
2022-12-07T10:33:30.646Z,23.79
2022-12-07T10:36:30.463Z,23.79
2022-12-07T10:39:21.518Z,23.77
2022-12-07T10:42:19.604Z,23.75
2022-12-07T10:45:17.681Z,23.75
2022-12-07T10:48:10.327Z,23.75
2022-12-07T10:51:05.013Z,23.73
2022-12-07T10:54:02.210Z,23.73
2022-12-07T10:57:08.903Z,23.73
2022-12-07T11:00:09.828Z,23.73
2022-12-07T11:03:29.246Z,23.73
2022-12-07T11:06:27.151Z,23.75
2022-12-07T11:10:06.279Z,23.75
2022-12-07T11:13:04.419Z,23.77
2022-12-07T11:16:15.472Z,23.75
2022-12-07T11:19:27.984Z,23.79
2022-12-07T11:22:20.122Z,23.77
2022-12-07T11:25:24.277Z,23.75
2022-12-07T11:28:25.069Z,23.79
2022-12-07T11:31:27.299Z,23.72
2022-12-07T11:34:26.517Z,23.71
2022-12-07T11:37:19.767Z,23.71
2022-12-07T11:40:18.059Z,23.73
2022-12-07T11:43:09.462Z,23.68
2022-12-07T11:46:02.370Z,23.67
2022-12-07T11:48:56.530Z,23.66
2022-12-07T11:51:48.483Z,23.64
2022-12-07T11:54:38.815Z,23.67
2022-12-07T11:57:32.829Z,23.65
2022-12-07T12:00:22.410Z,23.63
2022-12-07T12:03:15.177Z,23.61
2022-12-07T12:06:03.820Z,23.64
2022-12-07T12:15:42.888Z,23.67
2022-12-07T12:18:48.760Z,23.72
2022-12-07T12:21:37.787Z,23.72
2022-12-07T12:24:29.840Z,23.71
2022-12-07T12:27:24.584Z,23.66
2022-12-07T12:30:29.134Z,23.67
2022-12-07T12:33:25.080Z,23.65
2022-12-07T12:36:26.860Z,23.65
2022-12-07T12:39:17.189Z,23.68
2022-12-07T12:42:20.577Z,23.72
2022-12-07T12:45:23.770Z,23.68
2022-12-07T12:48:30.653Z,23.71
2022-12-07T12:51:39.225Z,23.67
2022-12-07T12:54:29.186Z,23.65
2022-12-07T12:57:24.800Z,23.67
2022-12-07T13:00:20.703Z,23.63
2022-12-07T13:03:24.539Z,23.62
2022-12-07T13:06:32.947Z,23.62
2022-12-07T13:09:24.763Z,23.62
2022-12-07T13:12:16.686Z,23.59
2022-12-07T13:15:37.373Z,23.60
2022-12-07T13:18:27.497Z,23.60
2022-12-07T13:21:43.539Z,23.59
2022-12-07T13:24:34.129Z,23.58
2022-12-07T13:27:24.072Z,23.58
2022-12-07T13:30:19.237Z,23.59
2022-12-07T13:33:07.950Z,23.61
2022-12-07T13:35:57.520Z,23.57
2022-12-07T13:38:52.552Z,23.53
2022-12-07T13:41:44.589Z,23.53
2022-12-07T13:44:42.081Z,23.56
2022-12-07T13:47:37.031Z,23.56
2022-12-07T13:50:27.149Z,23.55
2022-12-07T13:53:16.431Z,23.54
2022-12-07T13:56:05.496Z,23.56
2022-12-07T13:58:55.253Z,23.54
2022-12-07T14:01:44.353Z,23.54
2022-12-07T14:04:38.479Z,23.53
2022-12-07T14:07:28.921Z,23.55
2022-12-07T14:10:26.771Z,23.56
2022-12-07T14:13:31.975Z,23.56
2022-12-07T14:16:26.826Z,23.54
2022-12-07T14:19:51.537Z,23.54
2022-12-07T14:22:41.047Z,23.51
2022-12-07T14:25:29.663Z,23.55
2022-12-07T14:28:28.574Z,23.59
2022-12-07T14:31:26.243Z,23.55
2022-12-07T14:34:18.834Z,23.52
2022-12-07T14:37:11.988Z,23.56
2022-12-07T14:40:00.661Z,23.60
2022-12-07T14:42:50.442Z,23.58
2022-12-07T14:45:40.649Z,23.60
2022-12-07T14:54:50.981Z,23.55
2022-12-07T14:57:39.530Z,23.56
2022-12-07T15:00:29.476Z,23.54
2022-12-07T15:03:18.274Z,23.59
2022-12-07T15:06:08.266Z,23.59
2022-12-07T15:08:57.082Z,23.67
2022-12-07T15:11:47.043Z,23.55
2022-12-07T15:14:36.111Z,23.54
2022-12-07T15:17:31.642Z,23.49
2022-12-07T15:20:20.864Z,23.51
2022-12-07T15:23:09.786Z,23.45
2022-12-07T15:25:58.496Z,23.33
2022-12-07T15:28:48.759Z,23.09
2022-12-07T15:34:46.795Z,22.94
2022-12-07T15:37:35.724Z,22.92
2022-12-07T15:40:24.463Z,22.96
2022-12-07T15:43:26.972Z,22.99
2022-12-07T15:46:17.023Z,23.07
2022-12-07T15:49:06.279Z,23.02
2022-12-07T15:51:54.943Z,22.98
2022-12-07T15:54:43.705Z,23.04
2022-12-07T15:57:32.549Z,23.03
2022-12-07T16:00:22.436Z,23.04
2022-12-07T16:03:12.550Z,23.20
2022-12-07T16:06:01.204Z,23.16
2022-12-07T16:08:49.861Z,23.16
2022-12-07T16:11:38.607Z,23.19
2022-12-07T16:14:27.464Z,23.16
2022-12-07T16:17:16.159Z,23.13
2022-12-07T16:20:07.577Z,23.12
2022-12-07T16:22:56.403Z,23.11
2022-12-07T16:25:45.058Z,23.16
2022-12-07T16:28:33.782Z,23.17
2022-12-07T16:31:23.835Z,23.19
2022-12-07T16:34:12.925Z,23.17
2022-12-07T16:37:04.689Z,23.18
2022-12-07T16:39:54.065Z,23.23
2022-12-07T16:42:42.731Z,23.18
2022-12-07T16:45:31.357Z,23.15
2022-12-07T16:48:20.400Z,23.16
2022-12-07T16:51:11.032Z,23.24
2022-12-07T16:54:01.060Z,23.26
2022-12-07T16:56:49.706Z,23.25
2022-12-07T16:59:38.323Z,23.24
2022-12-07T17:02:26.939Z,23.23
2022-12-07T17:05:15.642Z,23.18
2022-12-07T17:08:04.732Z,23.24
2022-12-07T17:10:55.120Z,23.20
2022-12-07T17:14:01.620Z,23.23
2022-12-07T17:16:50.328Z,23.39
2022-12-07T17:19:39.071Z,23.27
2022-12-07T17:22:27.811Z,23.30
2022-12-07T17:25:17.529Z,23.34
2022-12-07T17:28:07.713Z,23.43
2022-12-07T17:30:56.386Z,23.46
2022-12-07T17:33:45.086Z,23.37
2022-12-07T17:36:34.491Z,23.45
2022-12-07T17:39:23.081Z,23.37
2022-12-07T17:42:29.224Z,23.38
2022-12-07T17:45:19.730Z,23.35
2022-12-07T17:48:08.567Z,23.33
2022-12-07T17:51:19.475Z,23.34
2022-12-07T17:54:08.221Z,23.34
2022-12-07T17:56:56.739Z,23.40
2022-12-07T17:59:45.694Z,23.37
2022-12-07T18:02:35.787Z,23.35
2022-12-07T18:05:24.704Z,23.40
2022-12-07T18:08:13.616Z,23.40
2022-12-07T18:11:03.242Z,23.51
2022-12-07T18:13:51.933Z,23.39
2022-12-07T18:16:40.667Z,23.37
2022-12-07T18:19:31.025Z,23.38
2022-12-07T18:22:19.612Z,23.38
2022-12-07T18:25:09.293Z,23.38
2022-12-07T18:27:57.881Z,23.42
2022-12-07T18:31:14.156Z,23.53
2022-12-07T18:34:04.159Z,23.64
2022-12-07T18:36:54.147Z,23.58
2022-12-07T18:39:42.761Z,23.51
2022-12-07T18:42:31.418Z,23.42
2022-12-07T18:45:20.178Z,23.40
2022-12-07T18:48:09.589Z,23.38
2022-12-07T18:51:03.069Z,23.38
2022-12-07T18:53:53.057Z,23.38
2022-12-07T18:56:41.748Z,23.34
2022-12-07T18:59:49.656Z,23.34
2022-12-07T19:02:41.117Z,23.36
2022-12-07T19:05:29.875Z,23.36
2022-12-07T19:08:18.768Z,23.34
2022-12-07T19:11:37.057Z,23.35
2022-12-07T19:14:27.193Z,23.37
2022-12-07T19:17:16.308Z,23.38
2022-12-07T19:20:07.643Z,23.35
2022-12-07T19:22:56.226Z,23.40
2022-12-07T19:25:44.868Z,23.41
2022-12-07T19:28:34.872Z,23.39
2022-12-07T19:31:23.517Z,23.40
2022-12-07T19:34:12.658Z,23.44
2022-12-07T19:37:01.334Z,23.55
2022-12-07T19:39:51.862Z,23.47
2022-12-07T19:42:40.515Z,23.42
2022-12-07T19:45:32.816Z,23.48
2022-12-07T19:48:21.620Z,23.47
2022-12-07T19:51:10.248Z,23.50
2022-12-07T19:53:59.543Z,23.59
2022-12-07T19:56:48.895Z,23.61
2022-12-07T19:59:37.540Z,23.57
2022-12-07T20:02:27.629Z,23.66
2022-12-07T20:05:16.382Z,23.61
2022-12-07T20:08:05.330Z,23.70
2022-12-07T20:10:54.583Z,23.70
2022-12-07T20:13:42.237Z,23.74
2022-12-07T20:16:30.936Z,23.86
2022-12-07T20:19:21.260Z,23.89
2022-12-07T20:22:09.946Z,23.91
2022-12-07T20:24:58.612Z,23.70
2022-12-07T20:27:47.203Z,23.61
2022-12-07T20:30:35.984Z,23.60
2022-12-07T20:33:24.762Z,23.60
2022-12-07T20:36:17.004Z,24.11
2022-12-07T20:39:07.036Z,24.30
2022-12-07T20:42:13.054Z,24.42
2022-12-07T20:45:06.631Z,24.43
2022-12-07T20:47:55.795Z,24.50
2022-12-07T20:50:44.458Z,24.63
2022-12-07T20:53:34.913Z,24.74
2022-12-07T20:56:25.763Z,24.75
2022-12-07T20:59:16.023Z,24.80
2022-12-07T21:02:04.870Z,24.77
2022-12-07T21:04:53.583Z,24.88
2022-12-07T21:07:42.473Z,24.98
2022-12-07T21:10:32.579Z,25.14
2022-12-07T21:13:21.165Z,25.05
2022-12-07T21:16:11.611Z,25.11
2022-12-07T21:19:02.823Z,24.94
2022-12-07T21:21:51.565Z,25.09
2022-12-07T21:24:41.641Z,25.13
2022-12-07T21:27:31.642Z,25.14
2022-12-07T21:30:20.930Z,24.67
2022-12-07T21:33:09.579Z,24.76
2022-12-07T21:35:58.200Z,25.03
2022-12-07T21:38:46.943Z,25.05
2022-12-07T21:41:36.771Z,25.05
2022-12-07T21:44:26.812Z,25.09
2022-12-07T21:47:15.406Z,25.04
2022-12-07T21:50:04.110Z,25.05
2022-12-07T21:52:52.819Z,25.21
2022-12-07T21:55:42.016Z,25.22
2022-12-07T21:58:30.982Z,25.23
2022-12-07T22:01:22.490Z,25.25
2022-12-07T22:04:17.030Z,25.23
2022-12-07T22:07:05.597Z,25.32
2022-12-07T22:09:54.243Z,25.33
2022-12-07T22:12:43.117Z,25.30
2022-12-07T22:15:31.772Z,25.42
2022-12-07T22:18:21.736Z,25.44
2022-12-07T22:21:10.385Z,25.44
2022-12-07T22:23:59.091Z,25.42
2022-12-07T22:26:47.897Z,25.42
2022-12-07T22:29:36.536Z,25.45
2022-12-07T22:32:47.906Z,24.89
2022-12-07T22:35:35.224Z,25.08
2022-12-07T22:38:24.035Z,25.33
2022-12-07T22:41:14.793Z,25.40
2022-12-07T22:44:03.832Z,25.39
2022-12-07T22:46:52.562Z,25.37
2022-12-07T22:49:41.154Z,25.00
2022-12-07T22:52:31.199Z,24.73
2022-12-07T22:55:19.825Z,24.47
2022-12-07T22:58:08.666Z,24.36
2022-12-07T23:00:57.477Z,24.33
2022-12-07T23:03:46.592Z,24.33
2022-12-07T23:06:36.762Z,24.24
2022-12-07T23:09:26.840Z,24.20
2022-12-07T23:12:33.255Z,24.19
2022-12-07T23:15:21.842Z,24.17
2022-12-07T23:18:10.532Z,24.19
2022-12-07T23:20:59.317Z,24.15
2022-12-07T23:23:47.965Z,24.16
2022-12-07T23:26:37.933Z,24.13
2022-12-07T23:29:26.597Z,24.08
2022-12-07T23:32:15.322Z,24.07
2022-12-07T23:35:04.235Z,24.09
2022-12-07T23:37:52.966Z,24.07
2022-12-07T23:40:41.616Z,24.04
2022-12-07T23:43:31.635Z,24.02
2022-12-07T23:46:21.812Z,24.03
2022-12-07T23:49:12.640Z,23.97
2022-12-07T23:52:01.277Z,23.95
2022-12-07T23:54:49.942Z,23.92
2022-12-07T23:57:38.565Z,23.90
